createdAt,value
2023-04-23T00:00:41.516Z,27.27
2023-04-23T00:03:09.011Z,23.80
2023-04-23T00:05:37.029Z,22.70
2023-04-23T00:08:04.186Z,23.83
2023-04-23T00:10:30.951Z,25.73
2023-04-23T00:15:42.411Z,25.63
2023-04-23T00:18:08.964Z,24.20
2023-04-23T00:20:35.559Z,24.40
2023-04-23T00:23:02.220Z,26.60
2023-04-23T00:25:28.792Z,23.38
2023-04-23T00:27:55.346Z,21.48
2023-04-23T00:30:21.990Z,24.30
2023-04-23T00:32:48.605Z,28.98
2023-04-23T00:35:15.211Z,22.95
2023-04-23T00:37:42.550Z,25.15
2023-04-23T00:40:09.658Z,24.02
2023-04-23T00:42:36.982Z,27.85
2023-04-23T00:45:03.727Z,26.42
2023-04-23T00:47:31.139Z,25.88
2023-04-23T00:49:59.178Z,24.77
2023-04-23T00:52:25.881Z,25.50
2023-04-23T00:54:52.383Z,27.25
2023-04-23T00:57:19.134Z,26.67
2023-04-23T00:59:46.263Z,25.27
2023-04-23T01:02:12.879Z,30.95
2023-04-23T01:04:42.583Z,26.10
2023-04-23T01:07:11.681Z,26.23
2023-04-23T01:09:38.816Z,25.00
2023-04-23T01:12:10.238Z,26.25
2023-04-23T01:14:37.734Z,27.00
2023-04-23T01:17:05.311Z,27.15
2023-04-23T01:19:31.916Z,28.55
2023-04-23T01:21:59.961Z,26.77
2023-04-23T01:24:27.392Z,27.85
2023-04-23T01:26:53.917Z,25.27
2023-04-23T01:29:21.037Z,27.85
2023-04-23T01:31:48.851Z,32.28
2023-04-23T01:34:15.605Z,30.17
2023-04-23T01:36:44.106Z,25.08
2023-04-23T01:39:10.602Z,31.38
2023-04-23T01:41:37.329Z,29.08
2023-04-23T01:44:03.946Z,29.45
2023-04-23T01:46:30.552Z,24.30
2023-04-23T01:48:57.284Z,27.45
2023-04-23T01:51:24.269Z,29.08
2023-04-23T01:53:51.049Z,32.55
2023-04-23T01:56:22.568Z,27.02
2023-04-23T01:58:49.036Z,29.50
2023-04-23T02:01:15.539Z,31.67
2023-04-23T02:03:42.381Z,25.50
2023-04-23T02:06:09.158Z,27.55
2023-04-23T02:08:36.052Z,23.48
2023-04-23T02:11:02.615Z,26.23
2023-04-23T02:13:29.244Z,29.70
2023-04-23T02:15:55.764Z,28.77
2023-04-23T02:18:22.370Z,32.95
2023-04-23T02:20:48.856Z,27.38
2023-04-23T02:23:15.397Z,27.95
2023-04-23T02:25:41.941Z,27.88
2023-04-23T02:28:08.746Z,26.90
2023-04-23T02:30:35.625Z,34.22
2023-04-23T02:33:02.475Z,25.15
2023-04-23T02:35:29.138Z,26.23
2023-04-23T02:37:55.643Z,25.63
2023-04-23T02:40:22.200Z,25.13
2023-04-23T02:42:49.432Z,28.20
2023-04-23T02:45:16.056Z,24.65
2023-04-23T02:47:42.562Z,22.13
2023-04-23T02:50:09.239Z,19.67
2023-04-23T02:52:35.775Z,20.40
2023-04-23T02:55:02.628Z,20.65
2023-04-23T02:57:29.259Z,20.17
2023-04-23T02:59:55.813Z,19.60
2023-04-23T03:02:22.430Z,18.33
2023-04-23T03:04:49.213Z,18.63
2023-04-23T03:07:15.722Z,16.63
2023-04-23T03:09:42.196Z,18.45
2023-04-23T03:12:08.771Z,15.00
2023-04-23T03:14:35.274Z,16.05
2023-04-23T03:17:01.954Z,13.40
2023-04-23T03:19:28.635Z,14.82
2023-04-23T03:21:55.149Z,13.93
2023-04-23T03:24:22.124Z,17.05
2023-04-23T03:26:48.631Z,13.25
2023-04-23T03:29:15.114Z,11.88
2023-04-23T03:31:41.605Z,15.80
2023-04-23T03:34:08.115Z,12.85
2023-04-23T03:36:34.624Z,13.35
2023-04-23T03:39:01.158Z,11.25
2023-04-23T03:41:27.696Z,11.20
2023-04-23T03:43:54.168Z,10.80
2023-04-23T03:46:20.853Z,11.68
2023-04-23T03:48:47.442Z,9.40
2023-04-23T03:51:13.979Z,10.88
2023-04-23T03:53:40.457Z,9.02
2023-04-23T03:56:07.069Z,9.60
2023-04-23T03:58:33.543Z,9.77
2023-04-23T04:01:00.038Z,8.95
2023-04-23T04:03:26.805Z,8.20
2023-04-23T04:05:53.569Z,9.63
2023-04-23T04:08:20.204Z,7.30
2023-04-23T04:10:46.889Z,8.38
2023-04-23T04:13:13.399Z,8.07
2023-04-23T04:15:40.178Z,7.25
2023-04-23T04:18:06.740Z,8.63
2023-04-23T04:20:33.230Z,10.52
2023-04-23T04:22:59.735Z,7.72
2023-04-23T04:25:26.279Z,7.80
2023-04-23T04:27:52.805Z,9.52
2023-04-23T04:30:19.277Z,5.32
2023-04-23T04:32:45.961Z,6.90
2023-04-23T04:35:12.585Z,8.80
2023-04-23T04:37:39.096Z,7.20
2023-04-23T04:40:06.952Z,7.40
2023-04-23T04:42:33.517Z,7.88
2023-04-23T04:44:59.979Z,9.68
2023-04-23T04:47:26.579Z,8.43
2023-04-23T04:49:53.152Z,7.68
2023-04-23T04:52:19.660Z,8.32
2023-04-23T04:54:46.200Z,7.43
2023-04-23T04:57:12.719Z,7.45
2023-04-23T04:59:39.469Z,7.30
2023-04-23T05:02:06.336Z,6.03
2023-04-23T05:04:33.020Z,6.70
2023-04-23T05:06:59.498Z,8.20
2023-04-23T05:09:26.127Z,8.38
2023-04-23T05:11:52.722Z,7.43
2023-04-23T05:14:19.207Z,6.20
2023-04-23T05:16:45.770Z,8.05
2023-04-23T05:19:12.268Z,7.60
2023-04-23T05:21:39.404Z,8.13
2023-04-23T05:24:06.066Z,7.25
2023-04-23T05:26:32.554Z,6.97
2023-04-23T05:28:59.064Z,10.50
2023-04-23T05:31:26.502Z,6.53
2023-04-23T05:33:54.623Z,6.05
2023-04-23T05:36:21.175Z,8.00
2023-04-23T05:38:47.758Z,6.88
2023-04-23T05:41:15.298Z,6.75
2023-04-23T05:43:42.113Z,6.63
2023-04-23T05:46:08.991Z,6.60
2023-04-23T05:48:35.487Z,8.38
2023-04-23T05:51:02.121Z,6.38
2023-04-23T05:53:28.911Z,7.85
2023-04-23T05:55:55.482Z,6.82
2023-04-23T05:58:21.989Z,7.30
2023-04-23T06:00:48.574Z,5.80
2023-04-23T06:03:15.244Z,8.23
2023-04-23T06:05:42.075Z,8.13
2023-04-23T06:08:08.768Z,6.53
2023-04-23T06:10:35.318Z,8.63
2023-04-23T06:13:01.829Z,6.32
2023-04-23T06:15:28.338Z,5.97
2023-04-23T06:17:54.917Z,6.75
2023-04-23T06:20:22.104Z,6.85
2023-04-23T06:22:48.608Z,8.95
2023-04-23T06:25:15.152Z,5.78
2023-04-23T06:27:41.670Z,6.93
2023-04-23T06:30:08.700Z,6.75
2023-04-23T06:32:35.244Z,6.82
2023-04-23T06:35:02.483Z,6.38
2023-04-23T06:37:29.974Z,5.82
2023-04-23T06:39:56.767Z,6.60
2023-04-23T06:42:23.411Z,8.70
2023-04-23T06:44:49.986Z,8.80
2023-04-23T06:47:16.473Z,7.15
2023-04-23T06:49:43.009Z,5.72
2023-04-23T06:52:09.549Z,6.65
2023-04-23T06:54:36.062Z,7.00
2023-04-23T06:57:02.602Z,8.00
2023-04-23T06:59:29.138Z,8.15
2023-04-23T07:01:55.614Z,8.57
2023-04-23T07:04:22.132Z,7.25
2023-04-23T07:06:48.710Z,7.97
2023-04-23T07:09:15.271Z,6.78
2023-04-23T07:11:41.885Z,7.32
2023-04-23T07:14:08.577Z,7.85
2023-04-23T07:16:35.204Z,5.43
2023-04-23T07:19:01.952Z,5.75
2023-04-23T07:21:29.003Z,7.22
2023-04-23T07:23:58.643Z,5.95
2023-04-23T07:26:25.326Z,4.97
2023-04-23T07:28:52.811Z,6.88
2023-04-23T07:31:19.575Z,6.57
2023-04-23T07:33:46.068Z,5.70
2023-04-23T07:36:12.569Z,9.07
2023-04-23T07:38:39.074Z,6.35
2023-04-23T07:41:05.721Z,5.18
2023-04-23T07:43:32.290Z,5.63
2023-04-23T07:45:58.783Z,4.63
2023-04-23T07:48:25.268Z,5.10
2023-04-23T07:50:51.839Z,5.15
2023-04-23T07:53:18.354Z,5.78
2023-04-23T07:55:44.882Z,4.97
2023-04-23T07:58:11.430Z,4.30
2023-04-23T08:00:38.015Z,4.30
2023-04-23T08:03:04.679Z,4.05
2023-04-23T08:05:31.485Z,7.40
2023-04-23T08:07:57.991Z,5.05
2023-04-23T08:10:24.525Z,6.10
2023-04-23T08:12:51.057Z,5.68
2023-04-23T08:15:17.572Z,3.85
2023-04-23T08:17:44.115Z,4.45
2023-04-23T08:20:11.017Z,8.50
2023-04-23T08:22:37.593Z,5.30
2023-04-23T08:25:04.443Z,7.50
2023-04-23T08:27:31.153Z,5.85
2023-04-23T08:29:57.639Z,4.88
2023-04-23T08:32:24.405Z,4.32
2023-04-23T08:34:51.087Z,4.80
2023-04-23T08:37:29.646Z,4.43
2023-04-23T08:39:57.272Z,4.80
2023-04-23T08:42:45.165Z,5.20
2023-04-23T08:45:12.518Z,2.90
2023-04-23T08:47:42.143Z,2.58
2023-04-23T08:50:10.944Z,7.18
2023-04-23T08:52:42.131Z,5.85
2023-04-23T08:55:09.766Z,4.97
2023-04-23T08:57:39.047Z,4.28
2023-04-23T09:00:06.410Z,3.88
2023-04-23T09:02:34.817Z,6.18
2023-04-23T09:05:03.687Z,5.25
2023-04-23T09:07:30.448Z,7.18
2023-04-23T09:09:57.086Z,5.15
2023-04-23T09:12:23.629Z,6.13
2023-04-23T09:14:50.678Z,4.95
2023-04-23T09:17:18.751Z,4.20
2023-04-23T09:19:46.181Z,4.40
2023-04-23T09:22:12.883Z,6.25
2023-04-23T09:24:43.073Z,3.35
2023-04-23T09:27:09.834Z,3.75
2023-04-23T09:29:36.341Z,4.75
2023-04-23T09:32:10.000Z,3.33
2023-04-23T09:34:37.004Z,6.07
2023-04-23T09:37:04.785Z,4.03
2023-04-23T09:39:34.023Z,3.53
2023-04-23T09:42:05.444Z,3.40
2023-04-23T09:44:33.197Z,4.22
2023-04-23T09:47:09.347Z,5.18
2023-04-23T09:49:48.782Z,3.00
2023-04-23T09:52:15.403Z,3.83
2023-04-23T09:54:42.842Z,3.25
2023-04-23T09:57:10.988Z,3.22
2023-04-23T09:59:47.098Z,2.97
2023-04-23T10:02:15.478Z,4.97
2023-04-23T10:04:42.509Z,5.47
2023-04-23T10:07:18.920Z,3.35
2023-04-23T10:09:47.488Z,3.53
2023-04-23T10:14:45.771Z,4.40
2023-04-23T10:17:12.775Z,3.42
2023-04-23T10:19:41.320Z,2.47
2023-04-23T10:24:48.718Z,4.05
2023-04-23T10:27:28.473Z,3.85
2023-04-23T10:30:06.390Z,2.90
2023-04-23T10:32:37.556Z,5.38
2023-04-23T10:35:05.141Z,4.65
2023-04-23T10:37:32.085Z,3.60
2023-04-23T10:40:09.505Z,4.50
2023-04-23T10:42:38.934Z,3.05
2023-04-23T10:45:22.606Z,4.53
2023-04-23T10:47:54.255Z,3.60
2023-04-23T10:50:22.988Z,5.40
2023-04-23T10:52:50.688Z,4.30
2023-04-23T10:55:19.236Z,3.17
2023-04-23T10:58:06.921Z,4.82
2023-04-23T11:00:45.926Z,4.75
2023-04-23T11:03:44.624Z,2.63
2023-04-23T11:08:52.497Z,4.00
2023-04-23T11:11:24.498Z,3.40
2023-04-23T11:13:52.028Z,3.22
2023-04-23T11:16:22.274Z,4.25
2023-04-23T11:18:55.712Z,3.15
2023-04-23T11:21:22.277Z,4.50
2023-04-23T11:23:48.876Z,5.68
2023-04-23T11:26:17.998Z,3.50
2023-04-23T11:28:46.465Z,6.63
2023-04-23T11:31:13.155Z,3.97
2023-04-23T11:33:39.851Z,3.65
2023-04-23T11:36:06.851Z,4.53
2023-04-23T11:38:33.331Z,5.07
2023-04-23T11:41:02.669Z,3.08
2023-04-23T11:43:29.310Z,5.63
2023-04-23T11:45:56.190Z,3.25
2023-04-23T11:48:23.770Z,5.43
2023-04-23T11:50:50.343Z,4.97
2023-04-23T11:53:16.982Z,3.28
2023-04-23T11:55:43.496Z,3.20
2023-04-23T11:58:10.052Z,4.95
2023-04-23T12:00:36.561Z,2.85
2023-04-23T12:03:04.574Z,2.70
2023-04-23T12:05:33.456Z,3.38
2023-04-23T12:08:15.225Z,4.07
2023-04-23T12:10:52.242Z,3.33
2023-04-23T12:13:27.568Z,3.72
2023-04-23T12:18:30.728Z,2.15
2023-04-23T12:21:05.740Z,5.20
2023-04-23T12:23:32.767Z,3.22
2023-04-23T12:25:59.362Z,4.65
2023-04-23T12:28:26.041Z,4.72
2023-04-23T12:30:52.606Z,3.15
2023-04-23T12:33:20.848Z,4.82
2023-04-23T12:35:51.299Z,3.40
2023-04-23T12:38:28.853Z,2.88
2023-04-23T12:40:59.767Z,4.15
2023-04-23T12:43:27.094Z,2.47
2023-04-23T12:45:56.670Z,3.60
2023-04-23T12:48:23.185Z,3.28
2023-04-23T12:50:49.754Z,3.17
2023-04-23T12:53:16.324Z,4.10
2023-04-23T12:55:42.842Z,3.88
2023-04-23T12:58:09.420Z,2.53
2023-04-23T13:00:36.049Z,3.72
2023-04-23T13:03:03.271Z,2.83
2023-04-23T13:05:29.849Z,5.28
2023-04-23T13:07:56.458Z,3.55
2023-04-23T13:10:23.029Z,1.45
2023-04-23T13:12:49.493Z,2.50
2023-04-23T13:15:16.027Z,2.45
2023-04-23T13:17:42.550Z,2.72
2023-04-23T13:20:09.412Z,3.03
2023-04-23T13:22:35.989Z,3.28
2023-04-23T13:25:02.580Z,2.83
2023-04-23T13:27:29.774Z,2.95
2023-04-23T13:29:56.354Z,2.75
2023-04-23T13:32:23.152Z,3.28
2023-04-23T13:34:50.035Z,2.50
2023-04-23T13:37:16.620Z,3.03
2023-04-23T13:39:43.807Z,2.63
2023-04-23T13:42:10.581Z,3.53
2023-04-23T13:44:37.255Z,2.97
2023-04-23T13:47:03.883Z,5.70
2023-04-23T13:49:30.386Z,4.40
2023-04-23T13:51:56.940Z,2.28
2023-04-23T13:54:23.430Z,4.05
2023-04-23T13:56:49.975Z,2.58
2023-04-23T13:59:19.907Z,4.18
2023-04-23T14:01:47.667Z,4.43
2023-04-23T14:04:14.237Z,3.53
2023-04-23T14:06:40.959Z,3.92
2023-04-23T14:09:07.469Z,3.28
2023-04-23T14:11:34.023Z,4.43
2023-04-23T14:14:00.780Z,3.22
2023-04-23T14:16:27.356Z,3.97
2023-04-23T14:18:54.144Z,5.40
2023-04-23T14:21:21.616Z,4.78
2023-04-23T14:23:48.154Z,4.40
2023-04-23T14:29:38.002Z,4.05
2023-04-23T14:32:04.835Z,6.45
2023-04-23T14:34:33.158Z,3.92
2023-04-23T14:36:59.726Z,3.60
2023-04-23T14:39:26.270Z,3.80
2023-04-23T14:41:53.308Z,2.90
2023-04-23T14:44:19.986Z,7.13
2023-04-23T14:46:46.482Z,4.75
2023-04-23T14:49:12.996Z,5.75
2023-04-23T14:51:39.579Z,4.25
2023-04-23T14:54:06.208Z,4.47
2023-04-23T14:56:32.698Z,5.72
2023-04-23T14:58:59.231Z,3.65
2023-04-23T15:01:26.842Z,4.55
2023-04-23T15:03:53.723Z,4.28
2023-04-23T15:06:20.394Z,6.20
2023-04-23T15:08:46.941Z,5.25
2023-04-23T15:11:13.600Z,8.15
2023-04-23T15:14:00.862Z,6.60
2023-04-23T15:16:47.484Z,6.10
2023-04-23T15:19:14.594Z,5.20
2023-04-23T15:21:41.081Z,3.72
2023-04-23T15:24:07.590Z,5.78
2023-04-23T15:26:34.538Z,5.93
2023-04-23T15:29:01.169Z,4.47
2023-04-23T15:31:27.675Z,3.97
2023-04-23T15:33:54.259Z,4.90
2023-04-23T15:36:20.791Z,4.93
2023-04-23T15:38:47.267Z,4.55
2023-04-23T15:41:13.886Z,6.90
2023-04-23T15:43:40.398Z,5.00
2023-04-23T15:46:06.907Z,8.52
2023-04-23T15:48:33.455Z,4.68
2023-04-23T15:50:59.997Z,5.00
2023-04-23T15:53:28.076Z,5.78
2023-04-23T15:55:54.604Z,3.88
2023-04-23T15:58:21.412Z,4.03
2023-04-23T16:00:48.016Z,3.47
2023-04-23T16:03:15.372Z,4.35
2023-04-23T16:05:42.499Z,3.70
2023-04-23T16:08:09.308Z,4.60
2023-04-23T16:10:37.844Z,4.32
2023-04-23T16:13:04.692Z,3.33
2023-04-23T16:15:31.185Z,3.42
2023-04-23T16:17:57.821Z,3.42
2023-04-23T16:20:24.794Z,2.72
2023-04-23T16:22:51.282Z,3.90
2023-04-23T16:25:17.951Z,2.67
2023-04-23T16:27:44.451Z,3.40
2023-04-23T16:30:11.345Z,2.53
2023-04-23T16:32:38.855Z,2.83
2023-04-23T16:35:05.618Z,2.50
2023-04-23T16:37:32.245Z,3.40
2023-04-23T16:40:00.182Z,3.30
2023-04-23T16:42:26.684Z,3.17
2023-04-23T16:44:53.168Z,3.38
2023-04-23T16:47:19.645Z,6.47
2023-04-23T16:49:46.187Z,4.55
2023-04-23T16:52:12.728Z,4.65
2023-04-23T16:54:39.264Z,4.20
2023-04-23T16:57:05.929Z,2.97
2023-04-23T16:59:32.513Z,3.83
2023-04-23T17:01:59.139Z,3.30
2023-04-23T17:04:25.895Z,3.85
2023-04-23T17:06:52.497Z,3.75
2023-04-23T17:09:19.206Z,3.58
2023-04-23T17:11:47.251Z,3.08
2023-04-23T17:14:13.858Z,2.95
2023-04-23T17:16:40.761Z,3.35
2023-04-23T17:19:07.626Z,3.10
2023-04-23T17:21:34.256Z,4.07
2023-04-23T17:24:01.342Z,4.32
2023-04-23T17:26:27.960Z,3.50
2023-04-23T17:28:54.571Z,3.97
2023-04-23T17:31:21.698Z,3.75
2023-04-23T17:33:48.279Z,3.45
2023-04-23T17:36:14.931Z,4.38
2023-04-23T17:38:41.570Z,4.82
2023-04-23T17:41:08.319Z,4.15
2023-04-23T17:43:34.948Z,3.83
2023-04-23T17:46:02.046Z,4.97
2023-04-23T17:48:28.682Z,3.45
2023-04-23T17:50:55.298Z,3.28
2023-04-23T17:53:22.043Z,3.45
2023-04-23T17:55:48.689Z,3.05
2023-04-23T17:58:15.209Z,2.85
2023-04-23T18:00:42.597Z,2.90
2023-04-23T18:03:09.558Z,2.78
2023-04-23T18:05:36.270Z,3.80
2023-04-23T18:08:03.109Z,3.03
2023-04-23T18:10:29.653Z,3.17
2023-04-23T18:12:56.396Z,3.17
2023-04-23T18:15:23.726Z,3.28
2023-04-23T18:17:50.343Z,3.22
2023-04-23T18:20:17.168Z,2.20
2023-04-23T18:22:43.753Z,3.47
2023-04-23T18:25:10.354Z,2.60
2023-04-23T18:27:36.945Z,2.72
2023-04-23T18:30:03.782Z,3.72
2023-04-23T18:32:36.987Z,2.38
2023-04-23T18:35:05.340Z,2.53
2023-04-23T18:37:48.789Z,2.08
2023-04-23T18:40:15.502Z,1.90
2023-04-23T18:42:42.046Z,1.58
2023-04-23T18:45:08.982Z,1.88
2023-04-23T18:47:49.857Z,1.30
2023-04-23T18:50:30.598Z,2.10
2023-04-23T18:52:57.292Z,2.38
2023-04-23T18:55:23.854Z,1.23
2023-04-23T18:57:50.404Z,1.38
2023-04-23T19:00:17.159Z,1.45
2023-04-23T19:02:43.764Z,1.15
2023-04-23T19:05:11.306Z,1.27
2023-04-23T19:07:37.934Z,1.42
2023-04-23T19:10:04.763Z,1.05
2023-04-23T19:12:31.262Z,1.90
2023-04-23T19:14:57.754Z,0.77
2023-04-23T19:17:24.290Z,2.03
2023-04-23T19:19:50.985Z,1.58
2023-04-23T19:22:17.688Z,0.60
2023-04-23T19:24:44.164Z,1.35
2023-04-23T19:27:10.724Z,1.90
2023-04-23T19:29:37.232Z,1.15
2023-04-23T19:32:03.833Z,1.20
2023-04-23T19:34:33.423Z,1.33
2023-04-23T19:37:00.034Z,1.02
2023-04-23T19:39:26.667Z,2.50
2023-04-23T19:41:56.420Z,1.45
2023-04-23T19:46:49.479Z,1.55
2023-04-23T19:49:16.049Z,1.40
2023-04-23T19:51:43.019Z,1.70
2023-04-23T19:54:09.588Z,1.33
2023-04-23T19:56:36.383Z,1.88
2023-04-23T19:59:02.945Z,2.22
2023-04-23T20:01:29.469Z,1.63
2023-04-23T20:03:56.190Z,1.15
2023-04-23T20:06:22.766Z,1.40
2023-04-23T20:08:49.314Z,2.00
2023-04-23T20:11:16.057Z,2.25
2023-04-23T20:13:42.744Z,1.55
2023-04-23T20:16:09.462Z,1.38
2023-04-23T20:18:36.533Z,1.00
2023-04-23T20:21:06.358Z,1.75
2023-04-23T20:25:59.887Z,1.65
2023-04-23T20:28:26.586Z,0.80
2023-04-23T20:30:53.078Z,0.95
2023-04-23T20:33:19.864Z,1.63
2023-04-23T20:35:46.696Z,1.33
2023-04-23T20:38:13.772Z,0.95
2023-04-23T20:40:40.625Z,1.23
2023-04-23T20:43:07.560Z,0.90
2023-04-23T20:45:34.233Z,0.73
2023-04-23T20:48:00.796Z,3.78
2023-04-23T20:50:27.419Z,1.42
2023-04-23T20:52:54.188Z,1.65
2023-04-23T20:55:24.030Z,4.00
2023-04-23T21:00:17.394Z,2.33
2023-04-23T21:02:44.135Z,1.00
2023-04-23T21:05:11.882Z,1.35
2023-04-23T21:07:38.472Z,1.92
2023-04-23T21:10:06.022Z,2.17
2023-04-23T21:12:32.900Z,1.77
2023-04-23T21:14:59.648Z,1.02
2023-04-23T21:17:26.243Z,1.65
2023-04-23T21:19:52.787Z,3.97
2023-04-23T21:22:19.429Z,2.53
2023-04-23T21:24:45.937Z,3.45
2023-04-23T21:27:15.485Z,1.23
2023-04-23T21:29:44.229Z,1.67
2023-04-23T21:32:11.314Z,1.00
2023-04-23T21:34:37.968Z,1.42
2023-04-23T21:37:04.547Z,1.58
2023-04-23T21:39:32.664Z,1.55
2023-04-23T21:41:59.660Z,1.02
2023-04-23T21:44:26.231Z,2.03
2023-04-23T21:46:52.741Z,1.88
2023-04-23T21:49:19.254Z,2.13
2023-04-23T21:51:45.776Z,1.10
2023-04-23T21:54:13.014Z,1.27
2023-04-23T21:56:39.555Z,1.65
2023-04-23T21:59:06.090Z,2.92
2023-04-23T22:01:34.994Z,1.25
2023-04-23T22:04:03.322Z,1.95
2023-04-23T22:06:30.129Z,1.23
2023-04-23T22:08:56.630Z,1.65
2023-04-23T22:11:23.225Z,1.70
2023-04-23T22:13:49.761Z,2.03
2023-04-23T22:16:27.545Z,2.90
2023-04-23T22:18:56.944Z,1.70
2023-04-23T22:21:23.497Z,6.40
2023-04-23T22:23:49.977Z,2.20
2023-04-23T22:26:16.603Z,2.00
2023-04-23T22:28:43.648Z,3.15
2023-04-23T22:31:10.180Z,4.22
2023-04-23T22:33:36.742Z,2.13
2023-04-23T22:36:03.429Z,1.52
2023-04-23T22:38:29.921Z,2.83
2023-04-23T22:40:56.423Z,1.85
2023-04-23T22:43:22.971Z,2.88
2023-04-23T22:45:49.605Z,1.95
2023-04-23T22:48:16.197Z,2.38
2023-04-23T22:50:42.727Z,4.10
2023-04-23T22:53:09.332Z,3.08
2023-04-23T22:55:35.910Z,2.40
2023-04-23T22:58:02.422Z,2.63
2023-04-23T23:00:28.969Z,2.63
2023-04-23T23:02:55.538Z,3.00
2023-04-23T23:05:22.054Z,2.85
2023-04-23T23:07:48.527Z,2.42
2023-04-23T23:10:15.074Z,2.70
2023-04-23T23:12:41.604Z,2.50
2023-04-23T23:15:08.692Z,3.20
2023-04-23T23:17:35.266Z,2.80
2023-04-23T23:20:01.860Z,3.13
2023-04-23T23:22:28.417Z,3.28
2023-04-23T23:24:54.918Z,3.08
2023-04-23T23:27:21.446Z,3.28
2023-04-23T23:29:48.013Z,2.75
2023-04-23T23:32:14.509Z,4.28
2023-04-23T23:34:41.010Z,2.92
2023-04-23T23:37:07.532Z,4.10
2023-04-23T23:39:34.059Z,5.50
2023-04-23T23:42:00.601Z,3.20
2023-04-23T23:44:27.178Z,3.50
2023-04-23T23:46:53.735Z,2.95
2023-04-23T23:49:20.309Z,3.30
2023-04-23T23:51:47.328Z,3.65
2023-04-23T23:54:13.986Z,3.70
2023-04-23T23:56:40.539Z,4.07
2023-04-23T23:59:07.043Z,3.15
